createdAt,value
2022-08-26T00:00:51.985Z,1011.42
2022-08-26T00:01:52.010Z,1011.41
2022-08-26T00:03:45.199Z,1011.41
2022-08-26T00:04:45.194Z,1011.41
2022-08-26T00:06:38.420Z,1011.45
2022-08-26T00:07:38.407Z,1011.44
2022-08-26T00:09:42.495Z,1011.42
2022-08-26T00:10:42.528Z,1011.40
2022-08-26T00:12:46.635Z,1011.42
2022-08-26T00:13:48.127Z,1011.41
2022-08-26T00:15:39.681Z,1011.40
2022-08-26T00:16:41.041Z,1011.39
2022-08-26T00:18:43.798Z,1011.42
2022-08-26T00:19:43.829Z,1011.38
2022-08-26T00:21:37.602Z,1011.34
2022-08-26T00:22:37.041Z,1011.37
2022-08-26T00:24:41.154Z,1011.36
2022-08-26T00:25:42.580Z,1011.36
2022-08-26T00:27:45.238Z,1011.37
2022-08-26T00:28:45.278Z,1011.34
2022-08-26T00:30:38.495Z,1011.36
2022-08-26T00:31:38.580Z,1011.32
2022-08-26T00:33:31.727Z,1011.32
2022-08-26T00:34:31.758Z,1011.33
2022-08-26T00:36:24.978Z,1011.34
2022-08-26T00:37:25.044Z,1011.33
2022-08-26T00:39:18.198Z,1011.31
2022-08-26T00:40:18.294Z,1011.29
2022-08-26T00:42:11.369Z,1011.26
2022-08-26T00:43:11.406Z,1011.28
2022-08-26T00:45:04.397Z,1011.27
2022-08-26T00:46:04.459Z,1011.26
2022-08-26T00:48:08.575Z,1011.25
2022-08-26T00:49:12.103Z,1011.24
2022-08-26T00:51:12.676Z,1011.20
2022-08-26T00:52:13.178Z,1011.19
2022-08-26T00:54:16.788Z,1011.21
2022-08-26T00:55:20.238Z,1011.21
2022-08-26T00:57:20.940Z,1011.20
2022-08-26T00:58:20.933Z,1011.16
2022-08-26T01:00:25.013Z,1011.21
2022-08-26T01:01:25.100Z,1011.19
2022-08-26T01:03:18.227Z,1011.23
2022-08-26T01:04:18.259Z,1011.20
2022-08-26T01:06:12.378Z,1011.19
2022-08-26T01:07:11.473Z,1011.17
2022-08-26T01:09:15.579Z,1011.16
2022-08-26T01:10:15.576Z,1011.15
2022-08-26T01:12:08.781Z,1011.13
2022-08-26T01:13:08.967Z,1011.15
2022-08-26T01:15:01.844Z,1011.16
2022-08-26T01:16:01.856Z,1011.13
2022-08-26T01:18:06.015Z,1011.15
2022-08-26T01:19:06.047Z,1011.16
2022-08-26T01:21:10.136Z,1011.17
2022-08-26T01:22:10.139Z,1011.18
2022-08-26T01:24:14.213Z,1011.16
2022-08-26T01:25:14.245Z,1011.16
2022-08-26T01:27:18.325Z,1011.18
2022-08-26T01:28:18.357Z,1011.18
2022-08-26T01:30:11.537Z,1011.22
2022-08-26T01:31:11.636Z,1011.20
2022-08-26T01:33:15.677Z,1011.18
2022-08-26T01:34:15.682Z,1011.18
2022-08-26T01:36:19.800Z,1011.14
2022-08-26T01:37:19.793Z,1011.20
2022-08-26T01:39:23.872Z,1011.14
2022-08-26T01:40:23.973Z,1011.14
2022-08-26T01:42:17.082Z,1011.10
2022-08-26T01:43:17.118Z,1011.15
2022-08-26T01:45:10.219Z,1011.14
2022-08-26T01:46:10.249Z,1011.10
2022-08-26T01:48:14.331Z,1011.07
2022-08-26T01:49:14.326Z,1011.09
2022-08-26T01:51:18.415Z,1011.07
2022-08-26T01:52:18.447Z,1011.08
2022-08-26T01:54:11.934Z,1011.03
2022-08-26T01:55:11.659Z,1011.04
2022-08-26T01:57:15.740Z,1011.00
2022-08-26T01:58:15.772Z,1011.02
2022-08-26T02:00:08.982Z,1010.97
2022-08-26T02:01:09.796Z,1011.01
2022-08-26T02:03:02.178Z,1011.01
2022-08-26T02:04:02.200Z,1010.98
2022-08-26T02:05:55.378Z,1011.04
2022-08-26T02:06:55.412Z,1011.03
2022-08-26T02:08:59.526Z,1010.97
2022-08-26T02:09:59.531Z,1010.98
2022-08-26T02:12:03.640Z,1010.99
2022-08-26T02:13:03.696Z,1010.98
2022-08-26T02:14:56.658Z,1010.94
2022-08-26T02:15:56.696Z,1010.95
2022-08-26T02:18:00.734Z,1010.95
2022-08-26T02:19:00.769Z,1010.91
2022-08-26T02:21:06.678Z,1010.94
2022-08-26T02:22:04.871Z,1010.90
2022-08-26T02:24:08.958Z,1010.92
2022-08-26T02:25:08.989Z,1010.92
2022-08-26T02:27:02.196Z,1010.90
2022-08-26T02:28:02.207Z,1010.88
2022-08-26T02:30:04.265Z,1010.89
2022-08-26T02:31:04.353Z,1010.89
2022-08-26T02:33:06.584Z,1010.87
2022-08-26T02:34:06.395Z,1010.86
2022-08-26T02:36:08.458Z,1010.83
2022-08-26T02:37:08.488Z,1010.88
2022-08-26T02:39:00.654Z,1010.83
2022-08-26T02:40:00.713Z,1010.85
2022-08-26T02:42:02.747Z,1010.83
2022-08-26T02:43:02.837Z,1010.82
2022-08-26T02:44:54.795Z,1010.84
2022-08-26T02:45:54.791Z,1010.81
2022-08-26T02:47:56.859Z,1010.83
2022-08-26T02:48:56.893Z,1010.83
2022-08-26T02:50:58.946Z,1010.78
2022-08-26T02:51:58.982Z,1010.80
2022-08-26T02:54:01.033Z,1010.75
2022-08-26T02:55:01.065Z,1010.76
2022-08-26T02:57:03.172Z,1010.77
2022-08-26T02:58:03.171Z,1010.75
2022-08-26T03:00:05.253Z,1010.77
2022-08-26T03:01:05.398Z,1010.75
2022-08-26T03:03:07.512Z,1010.74
2022-08-26T03:04:07.348Z,1010.72
2022-08-26T03:06:09.406Z,1010.72
2022-08-26T03:07:09.439Z,1010.76
2022-08-26T03:09:15.970Z,1010.72
2022-08-26T03:10:11.546Z,1010.74
2022-08-26T03:12:13.621Z,1010.72
2022-08-26T03:13:13.625Z,1010.72
2022-08-26T03:15:16.515Z,1010.74
2022-08-26T03:16:05.704Z,1010.73
2022-08-26T03:18:07.689Z,1010.75
2022-08-26T03:19:07.765Z,1010.73
2022-08-26T03:20:59.909Z,1010.71
2022-08-26T03:21:59.941Z,1010.68
2022-08-26T03:24:02.050Z,1010.69
2022-08-26T03:25:02.085Z,1010.62
2022-08-26T03:27:07.231Z,1010.64
2022-08-26T03:28:04.179Z,1010.62
2022-08-26T03:30:06.241Z,1010.62
2022-08-26T03:31:06.315Z,1010.59
2022-08-26T03:33:08.516Z,1010.61
2022-08-26T03:34:08.363Z,1010.59
2022-08-26T03:36:10.457Z,1010.60
2022-08-26T03:37:10.456Z,1010.61
2022-08-26T03:39:12.601Z,1010.59
2022-08-26T03:40:12.581Z,1010.57
2022-08-26T03:42:14.593Z,1010.58
2022-08-26T03:43:14.623Z,1010.57
2022-08-26T03:45:06.604Z,1010.57
2022-08-26T03:46:06.677Z,1010.54
2022-08-26T03:47:58.801Z,1010.54
2022-08-26T03:48:58.831Z,1010.55
2022-08-26T03:51:00.915Z,1010.53
2022-08-26T03:52:00.917Z,1010.52
2022-08-26T03:54:02.987Z,1010.55
2022-08-26T03:55:03.011Z,1010.52
2022-08-26T03:57:05.177Z,1010.53
2022-08-26T03:58:05.114Z,1010.51
2022-08-26T04:00:07.175Z,1010.54
2022-08-26T04:01:07.207Z,1010.52
2022-08-26T04:02:59.446Z,1010.52
2022-08-26T04:04:00.407Z,1010.50
2022-08-26T04:06:01.471Z,1010.50
2022-08-26T04:07:01.501Z,1010.50
2022-08-26T04:08:53.678Z,1010.49
2022-08-26T04:09:53.710Z,1010.46
2022-08-26T04:11:55.767Z,1010.48
2022-08-26T04:12:55.801Z,1010.44
2022-08-26T04:14:48.827Z,1010.43
2022-08-26T04:15:48.923Z,1010.45
2022-08-26T04:17:42.015Z,1010.43
2022-08-26T04:18:46.617Z,1010.43
2022-08-26T04:20:46.128Z,1010.48
2022-08-26T04:21:46.163Z,1010.49
2022-08-26T04:23:47.686Z,1010.48
2022-08-26T04:24:39.376Z,1010.49
2022-08-26T04:26:43.705Z,1010.45
2022-08-26T04:27:43.484Z,1010.48
2022-08-26T04:29:36.822Z,1010.48
2022-08-26T04:30:36.826Z,1010.46
2022-08-26T04:32:40.900Z,1010.45
2022-08-26T04:33:41.716Z,1010.44
2022-08-26T04:35:33.919Z,1010.41
2022-08-26T04:36:33.953Z,1010.39
2022-08-26T04:38:27.133Z,1010.39
2022-08-26T04:39:27.654Z,1010.42
2022-08-26T04:41:20.417Z,1010.37
2022-08-26T04:42:23.311Z,1010.39
2022-08-26T04:44:13.631Z,1010.39
2022-08-26T04:45:13.662Z,1010.37
2022-08-26T04:47:17.740Z,1010.42
2022-08-26T04:48:17.772Z,1010.40
2022-08-26T04:50:11.128Z,1010.40
2022-08-26T04:51:10.995Z,1010.38
2022-08-26T04:53:15.063Z,1010.38
2022-08-26T04:54:15.095Z,1010.39
2022-08-26T04:56:19.210Z,1010.42
2022-08-26T04:57:19.203Z,1010.41
2022-08-26T04:59:23.290Z,1010.43
2022-08-26T05:00:23.314Z,1010.48
2022-08-26T05:02:27.387Z,1010.48
2022-08-26T05:03:30.309Z,1010.50
2022-08-26T05:05:20.478Z,1010.49
2022-08-26T05:06:20.509Z,1010.52
2022-08-26T05:08:13.692Z,1010.49
2022-08-26T05:09:13.722Z,1010.48
2022-08-26T05:11:17.842Z,1010.52
2022-08-26T05:12:17.837Z,1010.53
2022-08-26T05:14:11.015Z,1010.54
2022-08-26T05:15:11.046Z,1010.51
2022-08-26T05:17:04.231Z,1010.55
2022-08-26T05:18:04.262Z,1010.52
2022-08-26T05:20:08.350Z,1010.57
2022-08-26T05:21:08.382Z,1010.59
2022-08-26T05:23:12.467Z,1010.59
2022-08-26T05:24:12.500Z,1010.59
2022-08-26T05:26:05.555Z,1010.61
2022-08-26T05:27:07.479Z,1010.61
2022-08-26T05:29:09.650Z,1010.62
2022-08-26T05:30:09.681Z,1010.64
2022-08-26T05:32:13.738Z,1010.66
2022-08-26T05:33:13.772Z,1010.65
2022-08-26T05:35:08.948Z,1010.70
2022-08-26T05:36:06.783Z,1010.68
2022-08-26T05:38:12.861Z,1010.71
2022-08-26T05:39:10.909Z,1010.72
2022-08-26T05:41:14.937Z,1010.70
2022-08-26T05:42:14.969Z,1010.66
2022-08-26T05:44:19.030Z,1010.65
2022-08-26T05:45:19.061Z,1010.68
2022-08-26T05:47:23.129Z,1010.64
2022-08-26T05:48:24.341Z,1010.63
2022-08-26T05:50:27.216Z,1010.63
2022-08-26T05:51:27.249Z,1010.63
2022-08-26T05:53:31.339Z,1010.63
2022-08-26T05:54:31.346Z,1010.65
2022-08-26T05:56:35.439Z,1010.67
2022-08-26T05:57:40.396Z,1010.62
2022-08-26T05:59:39.498Z,1010.60
2022-08-26T06:00:39.530Z,1010.60
2022-08-26T06:02:43.659Z,1010.65
2022-08-26T06:03:43.628Z,1010.62
2022-08-26T06:05:39.276Z,1010.59
2022-08-26T06:06:36.639Z,1010.59
2022-08-26T06:08:40.733Z,1010.55
2022-08-26T06:09:40.736Z,1010.55
2022-08-26T06:11:44.825Z,1010.58
2022-08-26T06:12:44.828Z,1010.59
2022-08-26T06:14:49.047Z,1010.57
2022-08-26T06:15:48.992Z,1010.59
2022-08-26T06:17:52.985Z,1010.57
2022-08-26T06:18:53.019Z,1010.57
2022-08-26T06:20:58.391Z,1010.57
2022-08-26T06:21:57.166Z,1010.56
2022-08-26T06:24:01.225Z,1010.56
2022-08-26T06:25:01.258Z,1010.58
2022-08-26T06:27:05.352Z,1010.56
2022-08-26T06:28:05.356Z,1010.55
2022-08-26T06:30:09.419Z,1010.57
2022-08-26T06:31:09.493Z,1010.57
2022-08-26T06:33:13.510Z,1010.55
2022-08-26T06:34:13.544Z,1010.54
2022-08-26T06:36:18.610Z,1010.51
2022-08-26T06:37:17.636Z,1010.56
2022-08-26T06:39:21.705Z,1010.50
2022-08-26T06:40:21.780Z,1010.53
2022-08-26T06:42:25.838Z,1010.51
2022-08-26T06:43:25.833Z,1010.54
2022-08-26T06:45:18.826Z,1010.53
2022-08-26T06:46:18.883Z,1010.55
2022-08-26T06:48:22.905Z,1010.55
2022-08-26T06:49:26.817Z,1010.55
2022-08-26T06:51:27.004Z,1010.56
2022-08-26T06:52:27.030Z,1010.52
2022-08-26T06:54:31.093Z,1010.53
2022-08-26T06:55:31.124Z,1010.55
2022-08-26T06:57:35.216Z,1010.51
2022-08-26T06:58:35.220Z,1010.52
2022-08-26T07:00:39.280Z,1010.52
2022-08-26T07:01:39.392Z,1010.49
2022-08-26T07:03:43.375Z,1010.48
2022-08-26T07:04:43.413Z,1010.48
2022-08-26T07:06:47.474Z,1010.48
2022-08-26T07:07:47.508Z,1010.44
2022-08-26T07:09:52.382Z,1010.45
2022-08-26T07:10:51.602Z,1010.44
2022-08-26T07:12:55.664Z,1010.42
2022-08-26T07:13:55.698Z,1010.42
2022-08-26T07:16:03.122Z,1010.40
2022-08-26T07:16:59.796Z,1010.42
2022-08-26T07:17:59.835Z,1010.39
2022-08-26T07:18:59.874Z,1010.41
2022-08-26T07:19:59.912Z,1010.40
2022-08-26T07:20:59.952Z,1010.39
2022-08-26T07:21:59.991Z,1010.38
2022-08-26T07:23:00.028Z,1010.38
2022-08-26T07:24:01.491Z,1010.36
2022-08-26T07:25:00.131Z,1010.37
2022-08-26T07:26:00.147Z,1010.39
2022-08-26T07:27:00.191Z,1010.33
2022-08-26T07:28:00.226Z,1010.35
2022-08-26T07:29:00.267Z,1010.33
2022-08-26T07:30:00.304Z,1010.34
2022-08-26T07:31:00.409Z,1010.31
2022-08-26T07:32:00.386Z,1010.33
2022-08-26T07:33:00.426Z,1010.33
2022-08-26T07:34:00.462Z,1010.33
2022-08-26T07:35:00.503Z,1010.34
2022-08-26T07:36:00.543Z,1010.32
2022-08-26T07:37:00.585Z,1010.35
2022-08-26T07:38:00.620Z,1010.35
2022-08-26T07:39:00.661Z,1010.31
2022-08-26T07:40:00.728Z,1010.28
2022-08-26T07:41:00.739Z,1010.28
2022-08-26T07:42:00.780Z,1010.32
2022-08-26T07:43:01.004Z,1010.29
2022-08-26T07:44:00.857Z,1010.27
2022-08-26T07:45:00.899Z,1010.25
2022-08-26T07:46:00.938Z,1010.30
2022-08-26T07:47:00.978Z,1010.27
2022-08-26T07:48:01.018Z,1010.32
2022-08-26T07:49:01.109Z,1010.34
2022-08-26T07:50:01.099Z,1010.31
2022-08-26T07:51:01.136Z,1010.33
2022-08-26T07:52:01.180Z,1010.29
2022-08-26T07:53:01.306Z,1010.31
2022-08-26T07:54:01.257Z,1010.29
2022-08-26T07:55:01.298Z,1010.29
2022-08-26T07:56:01.338Z,1010.32
2022-08-26T07:57:01.377Z,1010.31
2022-08-26T07:58:01.417Z,1010.27
2022-08-26T07:59:01.459Z,1010.26
2022-08-26T08:00:01.500Z,1010.27
2022-08-26T08:01:01.617Z,1010.20
2022-08-26T08:02:01.677Z,1010.23
2022-08-26T08:03:01.616Z,1010.24
2022-08-26T08:04:01.655Z,1010.26
2022-08-26T08:05:01.773Z,1010.24
2022-08-26T08:06:01.740Z,1010.22
2022-08-26T08:07:01.777Z,1010.24
2022-08-26T08:08:27.246Z,1010.29
2022-08-26T08:09:01.860Z,1010.24
2022-08-26T08:10:03.779Z,1010.26
2022-08-26T08:11:01.938Z,1010.21
2022-08-26T08:12:01.978Z,1010.25
2022-08-26T08:13:02.055Z,1010.25
2022-08-26T08:14:02.060Z,1010.23
2022-08-26T08:15:02.105Z,1010.22
2022-08-26T08:16:02.138Z,1010.19
2022-08-26T08:17:02.328Z,1010.24
2022-08-26T08:18:02.222Z,1010.19
2022-08-26T08:19:02.263Z,1010.18
2022-08-26T08:20:02.299Z,1010.19
2022-08-26T08:21:21.235Z,1010.23
2022-08-26T08:22:02.399Z,1010.19
2022-08-26T08:23:02.423Z,1010.18
2022-08-26T08:24:02.474Z,1010.21
2022-08-26T08:25:02.883Z,1010.21
2022-08-26T08:26:02.546Z,1010.20
2022-08-26T08:27:02.586Z,1010.18
2022-08-26T08:28:02.678Z,1010.15
2022-08-26T08:29:02.668Z,1010.15
2022-08-26T08:30:02.707Z,1010.16
2022-08-26T08:31:02.786Z,1010.18
2022-08-26T08:32:02.844Z,1010.14
2022-08-26T08:33:02.829Z,1010.14
2022-08-26T08:34:02.871Z,1010.13
2022-08-26T08:35:02.983Z,1010.17
2022-08-26T08:36:02.951Z,1010.14
2022-08-26T08:37:04.373Z,1010.14
2022-08-26T08:38:06.836Z,1010.16
2022-08-26T08:39:03.075Z,1010.18
2022-08-26T08:40:03.166Z,1010.18
2022-08-26T08:41:05.511Z,1010.18
2022-08-26T08:42:03.198Z,1010.18
2022-08-26T08:43:03.238Z,1010.16
2022-08-26T08:44:03.278Z,1010.14
2022-08-26T08:45:03.322Z,1010.12
2022-08-26T08:46:03.426Z,1010.14
2022-08-26T08:47:03.402Z,1010.10
2022-08-26T08:48:03.443Z,1010.09
2022-08-26T08:49:03.487Z,1010.09
2022-08-26T08:50:03.526Z,1010.08
2022-08-26T08:51:03.567Z,1010.07
2022-08-26T08:52:04.250Z,1010.09
2022-08-26T08:53:03.652Z,1010.06
2022-08-26T08:54:03.690Z,1010.07
2022-08-26T08:55:03.735Z,1010.05
2022-08-26T08:56:03.775Z,1010.00
2022-08-26T08:57:03.815Z,1010.03
2022-08-26T08:58:03.857Z,1010.01
2022-08-26T08:59:03.900Z,1009.99
2022-08-26T09:00:03.938Z,1009.97
2022-08-26T09:01:04.017Z,1009.97
2022-08-26T09:02:04.037Z,1009.95
2022-08-26T09:03:04.062Z,1009.92
2022-08-26T09:04:04.103Z,1009.92
2022-08-26T09:05:04.147Z,1009.91
2022-08-26T09:06:04.188Z,1009.93
2022-08-26T09:07:04.231Z,1009.87
2022-08-26T09:08:04.327Z,1009.89
2022-08-26T09:09:04.313Z,1009.87
2022-08-26T09:10:04.356Z,1009.87
2022-08-26T09:11:04.395Z,1009.86
2022-08-26T09:12:04.437Z,1009.86
2022-08-26T09:13:04.481Z,1009.83
2022-08-26T09:14:04.520Z,1009.87
2022-08-26T09:15:04.562Z,1009.88
2022-08-26T09:16:04.624Z,1009.86
2022-08-26T09:17:04.688Z,1009.82
2022-08-26T09:18:06.783Z,1009.83
2022-08-26T09:19:04.732Z,1009.84
2022-08-26T09:20:04.770Z,1009.86
2022-08-26T09:21:04.813Z,1009.87
2022-08-26T09:22:08.731Z,1009.87
2022-08-26T09:23:04.913Z,1009.91
2022-08-26T09:24:04.939Z,1009.89
2022-08-26T09:25:04.999Z,1009.88
2022-08-26T09:26:05.022Z,1009.86
2022-08-26T09:27:05.066Z,1009.85
2022-08-26T09:28:05.105Z,1009.85
2022-08-26T09:29:05.150Z,1009.86
2022-08-26T09:30:05.189Z,1009.84
2022-08-26T09:31:09.186Z,1009.88
2022-08-26T09:32:05.273Z,1009.87
2022-08-26T09:33:10.363Z,1009.86
2022-08-26T09:34:05.359Z,1009.87
2022-08-26T09:35:06.274Z,1009.84
2022-08-26T09:36:05.449Z,1009.83
2022-08-26T09:37:05.485Z,1009.81
2022-08-26T09:38:07.006Z,1009.79
2022-08-26T09:39:05.571Z,1009.77
2022-08-26T09:40:05.651Z,1009.77
2022-08-26T09:41:05.655Z,1009.75
2022-08-26T09:42:05.695Z,1009.75
2022-08-26T09:43:05.737Z,1009.76
2022-08-26T09:44:05.779Z,1009.77
2022-08-26T09:45:05.823Z,1009.69
2022-08-26T09:46:05.927Z,1009.70
2022-08-26T09:47:05.907Z,1009.68
2022-08-26T09:48:05.999Z,1009.68
2022-08-26T09:49:05.995Z,1009.66
2022-08-26T09:50:09.945Z,1009.63
2022-08-26T09:51:06.076Z,1009.64
2022-08-26T09:52:06.117Z,1009.65
2022-08-26T09:53:10.015Z,1009.62
2022-08-26T09:54:08.020Z,1009.64
2022-08-26T09:55:06.247Z,1009.63
2022-08-26T09:56:06.289Z,1009.62
2022-08-26T09:57:06.332Z,1009.56
2022-08-26T09:58:07.959Z,1009.53
2022-08-26T09:59:06.451Z,1009.54
2022-08-26T10:00:06.460Z,1009.49
2022-08-26T10:01:06.524Z,1009.46
2022-08-26T10:02:06.545Z,1009.47
2022-08-26T10:03:06.587Z,1009.41
2022-08-26T10:04:06.729Z,1009.40
2022-08-26T10:05:09.620Z,1009.36
2022-08-26T10:06:06.714Z,1009.36
2022-08-26T10:07:06.760Z,1009.36
2022-08-26T10:08:06.802Z,1009.34
2022-08-26T10:09:09.743Z,1009.35
2022-08-26T10:10:06.887Z,1009.29
2022-08-26T10:11:06.930Z,1009.28
2022-08-26T10:12:06.970Z,1009.27
2022-08-26T10:13:07.214Z,1009.27
2022-08-26T10:14:07.056Z,1009.20
2022-08-26T10:15:07.101Z,1009.21
2022-08-26T10:16:07.140Z,1009.16
2022-08-26T10:17:07.237Z,1009.15
2022-08-26T10:18:07.445Z,1009.11
2022-08-26T10:19:07.271Z,1009.08
2022-08-26T10:20:22.905Z,1009.02
2022-08-26T10:21:07.405Z,1009.03
2022-08-26T10:22:07.399Z,1009.02
2022-08-26T10:23:07.591Z,1009.01
2022-08-26T10:24:07.526Z,1008.99
2022-08-26T10:25:07.531Z,1008.96
2022-08-26T10:26:07.572Z,1008.93
2022-08-26T10:27:07.617Z,1008.90
2022-08-26T10:28:07.822Z,1008.91
2022-08-26T10:29:07.701Z,1008.93
2022-08-26T10:30:07.746Z,1008.92
2022-08-26T10:31:07.800Z,1008.85
2022-08-26T10:32:07.860Z,1008.84
2022-08-26T10:33:08.079Z,1008.86
2022-08-26T10:34:07.920Z,1008.80
2022-08-26T10:35:07.963Z,1008.76
2022-08-26T10:36:08.004Z,1008.78
2022-08-26T10:37:14.932Z,1008.79
2022-08-26T10:38:08.329Z,1008.72
2022-08-26T10:39:08.136Z,1008.74
2022-08-26T10:40:08.228Z,1008.76
2022-08-26T10:41:09.975Z,1008.72
2022-08-26T10:42:08.266Z,1008.70
2022-08-26T10:43:11.485Z,1008.71
2022-08-26T10:44:08.355Z,1008.71
2022-08-26T10:45:12.000Z,1008.67
2022-08-26T10:46:08.498Z,1008.63
2022-08-26T10:47:08.487Z,1008.64
2022-08-26T10:48:08.582Z,1008.62
2022-08-26T10:49:08.575Z,1008.62
2022-08-26T10:50:08.618Z,1008.57
2022-08-26T10:51:08.752Z,1008.57
2022-08-26T10:52:16.360Z,1008.59
2022-08-26T10:53:08.834Z,1008.56
2022-08-26T10:54:08.792Z,1008.48
2022-08-26T10:55:08.837Z,1008.48
2022-08-26T10:56:15.841Z,1008.45
2022-08-26T10:57:09.781Z,1008.47
2022-08-26T10:58:09.186Z,1008.46
2022-08-26T10:59:12.213Z,1008.43
2022-08-26T11:00:09.056Z,1008.42
2022-08-26T11:01:10.464Z,1008.35
2022-08-26T11:02:09.144Z,1008.35
2022-08-26T11:03:21.696Z,1008.32
2022-08-26T11:04:09.279Z,1008.33
2022-08-26T11:05:09.278Z,1008.31
2022-08-26T11:06:09.320Z,1008.25
2022-08-26T11:07:09.364Z,1008.29
2022-08-26T11:08:09.593Z,1008.25
2022-08-26T11:09:09.456Z,1008.27
2022-08-26T11:10:09.497Z,1008.22
2022-08-26T11:11:09.541Z,1008.26
2022-08-26T11:12:10.312Z,1008.25
2022-08-26T11:13:09.788Z,1008.22
2022-08-26T11:14:09.675Z,1008.23
2022-08-26T11:15:09.719Z,1008.23
2022-08-26T11:16:09.817Z,1008.29
2022-08-26T11:17:09.806Z,1008.30
2022-08-26T11:18:10.025Z,1008.33
2022-08-26T11:19:09.894Z,1008.35
2022-08-26T11:20:13.624Z,1008.32
2022-08-26T11:21:10.179Z,1008.27
2022-08-26T11:22:10.025Z,1008.26
2022-08-26T11:23:10.069Z,1008.24
2022-08-26T11:24:10.114Z,1008.18
2022-08-26T11:25:11.431Z,1008.15
2022-08-26T11:26:35.891Z,1008.13
2022-08-26T11:28:03.465Z,1008.07
2022-08-26T11:29:03.442Z,1008.03
2022-08-26T11:31:07.566Z,1007.95
2022-08-26T11:32:07.547Z,1007.96
2022-08-26T11:34:11.654Z,1007.91
2022-08-26T11:35:11.693Z,1007.85
2022-08-26T11:37:15.798Z,1007.89
2022-08-26T11:38:15.812Z,1007.92
2022-08-26T11:40:19.923Z,1007.91
2022-08-26T11:41:19.935Z,1007.92
2022-08-26T11:43:24.037Z,1008.05
2022-08-26T11:44:24.061Z,1008.07
2022-08-26T11:46:17.153Z,1008.11
2022-08-26T11:47:17.099Z,1008.15
2022-08-26T11:49:21.182Z,1008.22
2022-08-26T11:50:21.219Z,1008.29
2022-08-26T11:52:25.345Z,1008.43
2022-08-26T11:53:25.355Z,1008.34
2022-08-26T11:55:19.206Z,1008.48
2022-08-26T11:56:18.384Z,1008.45
2022-08-26T11:58:22.471Z,1008.57
2022-08-26T11:59:22.537Z,1008.56
2022-08-26T12:01:15.697Z,1008.62
2022-08-26T12:02:15.732Z,1008.65
2022-08-26T12:04:19.964Z,1008.70
2022-08-26T12:05:19.847Z,1008.73
2022-08-26T12:07:24.497Z,1008.75
2022-08-26T12:08:23.976Z,1008.73
2022-08-26T12:10:17.191Z,1008.72
2022-08-26T12:11:17.198Z,1008.71
2022-08-26T12:13:21.317Z,1008.71
2022-08-26T12:14:21.314Z,1008.70
2022-08-26T12:16:25.513Z,1008.75
2022-08-26T12:17:25.430Z,1008.88
2022-08-26T12:19:33.010Z,1008.89
2022-08-26T12:20:29.570Z,1009.01
2022-08-26T12:22:33.659Z,1009.01
2022-08-26T12:23:33.693Z,1009.05
2022-08-26T12:25:26.725Z,1009.00
2022-08-26T12:26:26.729Z,1008.97
2022-08-26T12:28:30.811Z,1008.84
2022-08-26T12:29:30.846Z,1008.81
2022-08-26T12:31:35.008Z,1008.82
2022-08-26T12:32:34.972Z,1008.77
2022-08-26T12:34:27.151Z,1008.81
2022-08-26T12:35:27.185Z,1008.79
2022-08-26T12:37:30.397Z,1008.96
2022-08-26T12:38:30.434Z,1009.02
2022-08-26T12:40:32.654Z,1009.08
2022-08-26T12:41:32.611Z,1009.07
2022-08-26T12:43:25.797Z,1009.07
2022-08-26T12:44:25.835Z,1009.05
2022-08-26T12:46:29.923Z,1009.05
2022-08-26T12:47:32.760Z,1009.15
2022-08-26T12:49:23.149Z,1009.29
2022-08-26T12:50:23.181Z,1009.32
2022-08-26T12:52:16.370Z,1009.42
2022-08-26T12:53:16.411Z,1009.44
2022-08-26T12:55:09.406Z,1009.57
2022-08-26T12:56:09.442Z,1009.51
2022-08-26T12:58:13.581Z,1009.48
2022-08-26T12:59:14.705Z,1009.44
2022-08-26T13:01:07.013Z,1009.38
2022-08-26T13:02:06.997Z,1009.33
2022-08-26T13:04:10.870Z,1009.20
2022-08-26T13:05:10.904Z,1009.13
2022-08-26T13:07:04.093Z,1009.19
2022-08-26T13:08:04.124Z,1009.13
2022-08-26T13:09:57.382Z,1009.13
2022-08-26T13:10:57.387Z,1009.19
2022-08-26T13:13:01.591Z,1009.15
2022-08-26T13:14:01.818Z,1009.12
2022-08-26T13:15:54.868Z,1009.13
2022-08-26T13:16:54.822Z,1009.13
2022-08-26T13:18:48.005Z,1009.11
2022-08-26T13:19:48.042Z,1009.06
2022-08-26T13:20:48.098Z,1009.01
2022-08-26T13:21:48.120Z,1009.01
2022-08-26T13:22:48.161Z,1009.02
2022-08-26T13:23:48.197Z,1009.00
2022-08-26T13:24:48.237Z,1009.05
2022-08-26T13:25:48.277Z,1009.09
2022-08-26T13:26:48.319Z,1009.18
2022-08-26T13:27:48.359Z,1009.25
2022-08-26T13:28:48.638Z,1009.36
2022-08-26T13:29:48.440Z,1009.40
2022-08-26T13:30:48.477Z,1009.47
2022-08-26T13:31:48.577Z,1009.50
2022-08-26T13:32:48.561Z,1009.47
2022-08-26T13:33:48.598Z,1009.46
2022-08-26T13:34:51.264Z,1009.42
2022-08-26T13:35:48.678Z,1009.42
2022-08-26T13:36:48.719Z,1009.37
2022-08-26T13:37:48.758Z,1009.37
2022-08-26T13:40:34.607Z,1009.19
2022-08-26T13:41:31.626Z,1009.14
2022-08-26T13:43:35.715Z,1008.96
2022-08-26T13:44:35.751Z,1008.89
2022-08-26T13:46:39.876Z,1008.84
2022-08-26T13:47:39.851Z,1008.82
2022-08-26T13:49:43.930Z,1008.74
2022-08-26T13:50:43.964Z,1008.72
2022-08-26T13:52:48.027Z,1008.69
2022-08-26T13:53:48.064Z,1008.71
2022-08-26T13:55:41.060Z,1008.69
2022-08-26T13:56:41.090Z,1008.68
2022-08-26T13:58:45.189Z,1008.72
2022-08-26T13:59:45.194Z,1008.65
2022-08-26T14:01:38.473Z,1008.53
2022-08-26T14:02:38.477Z,1008.43
2022-08-26T14:04:42.547Z,1008.34
2022-08-26T14:05:42.577Z,1008.31
2022-08-26T14:07:46.682Z,1008.36
2022-08-26T14:08:46.711Z,1008.34
2022-08-26T14:10:50.780Z,1008.33
2022-08-26T14:11:54.335Z,1008.29
2022-08-26T14:13:54.926Z,1008.29
2022-08-26T14:14:54.933Z,1008.31
2022-08-26T14:17:00.400Z,1008.29
2022-08-26T14:17:59.023Z,1008.34
2022-08-26T14:19:52.232Z,1008.42
2022-08-26T14:20:52.246Z,1008.47
2022-08-26T14:23:03.536Z,1008.52
2022-08-26T14:23:45.462Z,1008.49
2022-08-26T14:25:38.465Z,1008.50
2022-08-26T14:26:38.501Z,1008.56
2022-08-26T14:28:42.611Z,1008.59
2022-08-26T14:29:42.608Z,1008.68
2022-08-26T14:31:35.846Z,1008.88
2022-08-26T14:32:35.822Z,1009.08
2022-08-26T14:34:39.892Z,1009.30
2022-08-26T14:35:39.935Z,1009.26
2022-08-26T14:37:43.994Z,1009.45
2022-08-26T14:38:44.024Z,1009.41
2022-08-26T14:40:48.124Z,1009.07
2022-08-26T14:41:53.828Z,1008.85
2022-08-26T14:43:41.305Z,1008.70
2022-08-26T14:44:41.336Z,1008.78
2022-08-26T14:46:34.633Z,1008.67
2022-08-26T14:47:34.549Z,1008.64
2022-08-26T14:49:38.624Z,1008.35
2022-08-26T14:50:38.657Z,1008.32
2022-08-26T14:52:42.732Z,1008.32
2022-08-26T14:53:42.762Z,1008.38
2022-08-26T14:54:42.803Z,1008.46
2022-08-26T14:55:42.842Z,1008.52
2022-08-26T14:56:42.880Z,1008.55
2022-08-26T14:57:42.926Z,1008.60
2022-08-26T14:58:42.954Z,1008.56
2022-08-26T14:59:42.996Z,1008.51
2022-08-26T15:00:43.038Z,1008.47
2022-08-26T15:01:43.227Z,1008.45
2022-08-26T15:02:43.306Z,1008.46
2022-08-26T15:03:43.175Z,1008.54
2022-08-26T15:04:43.193Z,1008.56
2022-08-26T15:05:46.092Z,1008.62
2022-08-26T15:06:43.270Z,1008.62
2022-08-26T15:07:43.311Z,1008.62
2022-08-26T15:08:43.345Z,1008.66
2022-08-26T15:09:43.386Z,1008.58
2022-08-26T15:10:43.425Z,1008.51
2022-08-26T15:11:43.461Z,1008.43
2022-08-26T15:12:43.502Z,1008.38
2022-08-26T15:13:43.542Z,1008.30
2022-08-26T15:14:43.579Z,1008.27
2022-08-26T15:15:43.641Z,1008.28
2022-08-26T15:16:43.658Z,1008.20
2022-08-26T15:17:43.696Z,1008.12
2022-08-26T15:18:43.733Z,1008.07
2022-08-26T15:19:43.775Z,1007.99
2022-08-26T15:20:43.811Z,1007.92
2022-08-26T15:21:43.855Z,1007.84
2022-08-26T15:22:43.889Z,1007.78
2022-08-26T15:23:47.746Z,1007.67
2022-08-26T15:24:43.965Z,1007.64
2022-08-26T15:25:44.009Z,1007.56
2022-08-26T15:26:44.042Z,1007.59
2022-08-26T15:27:44.083Z,1007.56
2022-08-26T15:28:44.124Z,1007.56
2022-08-26T15:29:44.165Z,1007.57
2022-08-26T15:30:44.201Z,1007.54
2022-08-26T15:31:44.265Z,1007.53
2022-08-26T15:32:44.278Z,1007.54
2022-08-26T15:33:44.317Z,1007.51
2022-08-26T15:34:44.356Z,1007.50